Change the Weather History Date:

Wednesday, November 6, 2013

  Actual Average (KPBG) Record (KPBG)
Temperature  
Mean Temperature 54 °F 40 °F  
Max Temperature 61 °F 50 °F 73 °F (1948)
Min Temperature 48 °F 31 °F 17 °F (1951)
Degree Days  
Heating Degree Days 10 25  
Month to date heating degree days 143  
Since 1 July heating degree days 926  
Cooling Degree Days 0 0  
Month to date cooling degree days 0  
Year to date cooling degree days 346  
Growing Degree Days 4 (Base 50)    
Moisture  
Dew Point 39 °F    
Average Humidity 56    
Maximum Humidity 63    
Minimum Humidity 49    
Precipitation  
Precipitation 0.00 in - 0.74 in (1969)
Month to date precipitation  
Year to date precipitation  
Sea Level Pressure  
Sea Level Pressure 30.11 in    
Wind  
Wind Speed 9 mph (South)    
Max Wind Speed 20 mph    
Max Gust Speed 31 mph    
Visibility 10 miles    
Events Rain    
T = Trace of Precipitation, MM = Missing Value Source: NWS Daily Summary

Daily Weather History Graph

Daily Weather History Graph

Search for Another Location

Airport or City:

Trip Planner

Search our weather history database for the weather conditions in past years. The results will help you decide how hot, cold, wet, or windy it might be!

Date:

Astronomy

Nov. 06, 2013 Rise Set
Actual Time 6:37 AM EST 4:33 PM EST
Civil Twilight 6:06 AM EST 5:04 PM EST
Nautical Twilight 5:31 AM EST 5:39 PM EST
Astronomical Twilight 4:57 AM EST 6:13 PM EST
Moon 9:53 AM EST (11/6) 7:31 PM EST (11/6)
Length of Visible Light 10h 57m
Length of Day
9h 55m
Waxing Crescent, 13% of the Moon is Illuminated
Nov 6
Waxing Crescent
Nov 10
First Quarter
Nov 17
Full
Nov 25
Last Quarter
Dec 2
New

Hourly Weather History & Observations

Time (EST) Temp. Dew Point Humidity Pressure Visibility Wind Dir Wind Speed Gust Speed Precip Events Conditions
12:15 AM 48.4 °F 34.0 °F 58% 30.37 in 10.0 mi South 6.9 mph - N/A   Clear
12:35 AM 48.4 °F 34.5 °F 59% 30.37 in 10.0 mi SSE 6.9 mph - N/A   Scattered Clouds
12:55 AM 48.4 °F 34.7 °F 59% 30.37 in 10.0 mi South 5.8 mph - N/A   Clear
1:35 AM 48.4 °F 34.7 °F 59% 30.36 in 10.0 mi South 9.2 mph - N/A   Clear
1:55 AM 48.4 °F 34.7 °F 59% 30.36 in 10.0 mi South 8.1 mph - N/A   Clear
2:15 AM 48.4 °F 35.1 °F 60% 30.35 in 10.0 mi South 9.2 mph - N/A   Clear
2:35 AM 48.4 °F 35.1 °F 60% 30.35 in 10.0 mi South 6.9 mph - N/A   Clear
2:55 AM 48.4 °F 35.4 °F 61% 30.35 in 10.0 mi South 6.9 mph - N/A   Clear
3:15 AM 48.4 °F 35.6 °F 61% 30.35 in 10.0 mi South 8.1 mph - N/A   Mostly Cloudy
3:35 AM 48.4 °F 35.1 °F 60% 30.33 in 10.0 mi South 6.9 mph - N/A   Overcast
3:55 AM 48.4 °F 34.9 °F 60% 30.33 in 10.0 mi South 6.9 mph - N/A   Scattered Clouds
4:15 AM 48.4 °F 35.2 °F 60% 30.33 in 10.0 mi South 6.9 mph - N/A   Clear
4:35 AM 48.4 °F 35.6 °F 61% 30.33 in 10.0 mi SSW 4.6 mph - N/A   Clear
4:55 AM 48.4 °F 35.8 °F 62% 30.33 in 10.0 mi South 4.6 mph - N/A   Clear
5:15 AM 48.4 °F 35.8 °F 62% 30.32 in 10.0 mi South 5.8 mph - N/A   Clear
5:35 AM 48.4 °F 35.8 °F 62% 30.31 in 10.0 mi South 6.9 mph - N/A   Clear
5:55 AM 48.4 °F 35.8 °F 62% 30.30 in 10.0 mi South 5.8 mph - N/A   Clear
6:15 AM 50.5 °F 37.4 °F 61% 30.30 in 10.0 mi South 5.8 mph - N/A   Clear
6:35 AM 50.9 °F 37.8 °F 61% 30.29 in 10.0 mi South 6.9 mph - N/A   Clear
6:55 AM 50.9 °F 37.9 °F 61% 30.29 in 10.0 mi South 3.5 mph - N/A   Clear
7:15 AM 50.9 °F 38.3 °F 62% 30.29 in 10.0 mi South 5.8 mph - N/A   Clear
7:35 AM 50.9 °F 38.7 °F 63% 30.29 in 10.0 mi South 5.8 mph - N/A   Clear
7:55 AM 50.9 °F 38.8 °F 63% 30.27 in 10.0 mi SSE 5.8 mph - N/A   Clear
8:15 AM 50.9 °F 38.3 °F 62% 30.26 in 10.0 mi South 8.1 mph - N/A   Clear
8:35 AM 50.9 °F 37.8 °F 61% 30.24 in 10.0 mi South 9.2 mph - N/A   Clear
8:55 AM 50.9 °F 37.4 °F 60% 30.23 in 10.0 mi South 9.2 mph - N/A   Clear
9:15 AM 53.6 °F 38.7 °F 57% 30.22 in 10.0 mi South 8.1 mph - N/A   Clear
9:35 AM 55.9 °F 40.6 °F 56% 30.21 in 10.0 mi South 8.1 mph 24.2 mph N/A   Clear
9:55 AM 55.9 °F 39.7 °F 55% 30.20 in 10.0 mi SSW 10.4 mph 17.3 mph N/A   Clear
10:15 AM 55.9 °F 39.4 °F 54% 30.20 in 10.0 mi SSW 13.8 mph 23.0 mph N/A   Clear
10:35 AM 55.9 °F 39.2 °F 53% 30.18 in 10.0 mi South 13.8 mph 24.2 mph N/A   Clear
10:55 AM 58.5 °F 40.6 °F 52% 30.17 in 10.0 mi SSW 8.1 mph 18.4 mph N/A   Clear
11:15 AM 58.5 °F 40.3 °F 51% 30.16 in 10.0 mi South 12.7 mph 18.4 mph N/A   Clear
11:35 AM 58.5 °F 39.9 °F 50% 30.14 in 10.0 mi South 10.4 mph 18.4 mph N/A   Clear
11:55 AM 58.5 °F 39.6 °F 49% 30.13 in 10.0 mi South 11.5 mph 23.0 mph N/A   Clear
12:15 PM 58.5 °F 40.5 °F 51% 30.12 in 10.0 mi South 10.4 mph 21.9 mph N/A   Clear
12:35 PM 58.5 °F 40.3 °F 51% 30.12 in 10.0 mi SSW 10.4 mph 19.6 mph N/A   Clear
12:55 PM 58.5 °F 40.3 °F 51% 30.10 in 10.0 mi South 13.8 mph 19.6 mph N/A   Clear
1:15 PM 57.2 °F 39.9 °F 52% 30.08 in 10.0 mi South 13.8 mph 23.0 mph N/A   Scattered Clouds
1:35 PM 56.7 °F 39.7 °F 53% 30.08 in 10.0 mi South 12.7 mph 23.0 mph N/A   Mostly Cloudy
1:55 PM 55.9 °F 39.7 °F 55% 30.06 in 10.0 mi South 12.7 mph 18.4 mph N/A   Overcast
2:15 PM 55.9 °F 39.7 °F 55% 30.05 in 10.0 mi South 12.7 mph 23.0 mph N/A   Mostly Cloudy
2:35 PM 55.9 °F 40.1 °F 55% 30.05 in 10.0 mi South 11.5 mph 19.6 mph N/A   Mostly Cloudy
2:55 PM 58.5 °F 41.2 °F 53% 30.03 in 10.0 mi South 10.4 mph 21.9 mph N/A   Scattered Clouds
3:15 PM 58.5 °F 41.0 °F 52% 30.03 in 10.0 mi South 10.4 mph 23.0 mph N/A   Clear
3:35 PM 58.5 °F 41.0 °F 52% 30.02 in 10.0 mi South 10.4 mph 21.9 mph N/A   Scattered Clouds
3:55 PM 58.5 °F 40.5 °F 51% 30.00 in 10.0 mi South 13.8 mph 24.2 mph N/A   Scattered Clouds
4:15 PM 58.5 °F 40.1 °F 51% 30.00 in 10.0 mi South 13.8 mph 21.9 mph N/A   Mostly Cloudy
4:35 PM 58.5 °F 40.1 °F 51% 29.99 in 10.0 mi South 12.7 mph 20.7 mph N/A   Mostly Cloudy
4:55 PM 58.5 °F 40.5 °F 51% 29.97 in 10.0 mi South 12.7 mph 23.0 mph N/A   Overcast
5:15 PM 58.5 °F 40.6 °F 52% 29.96 in 10.0 mi South 15.0 mph 23.0 mph N/A   Scattered Clouds
5:35 PM 59.4 °F 41.0 °F 51% 29.95 in 10.0 mi South 19.6 mph 31.1 mph N/A   Clear
5:55 PM 60.4 °F 42.1 °F 51% 29.96 in 10.0 mi South 15.0 mph 25.3 mph N/A   Scattered Clouds
6:15 PM 59.5 °F 41.5 °F 51% 29.93 in 10.0 mi South 15.0 mph 26.5 mph N/A   Clear
6:35 PM 61.0 °F 42.8 °F 51% 29.92 in 10.0 mi South 15.0 mph 27.6 mph N/A   Clear
6:55 PM 61.0 °F 42.8 °F 51% 29.91 in 10.0 mi South 16.1 mph 25.3 mph N/A   Scattered Clouds
7:15 PM 60.4 °F 42.4 °F 51% 29.90 in 10.0 mi South 13.8 mph 24.2 mph N/A   Scattered Clouds
7:35 PM 59.0 °F 41.4 °F 52% 29.89 in 10.0 mi South 16.1 mph 26.5 mph N/A   Clear
7:55 PM 58.8 °F 41.5 °F 53% 29.90 in 10.0 mi South 18.4 mph 28.8 mph N/A   Mostly Cloudy
8:15 PM 58.5 °F 41.5 °F 53% 29.86 in 10.0 mi South 18.4 mph 31.1 mph N/A   Mostly Cloudy
8:35 PM 58.5 °F 41.9 °F 54% 29.86 in 10.0 mi South 12.7 mph 31.1 mph N/A   Scattered Clouds
8:55 PM 58.5 °F 42.1 °F 55% 29.86 in 10.0 mi South 16.1 mph 31.1 mph N/A   Scattered Clouds
9:15 PM 58.5 °F 42.6 °F 56% 29.84 in 10.0 mi South 13.8 mph 28.8 mph N/A   Mostly Cloudy
9:35 PM 58.5 °F 43.0 °F 56% 29.83 in 10.0 mi South 15.0 mph 28.8 mph N/A   Overcast
9:55 PM 58.5 °F 43.2 °F 57% 29.83 in 10.0 mi South 17.3 mph 31.1 mph N/A   Mostly Cloudy
10:15 PM 58.5 °F 43.3 °F 57% 29.82 in 10.0 mi South 17.3 mph 28.8 mph N/A   Mostly Cloudy
10:35 PM 58.5 °F 43.7 °F 58% 29.81 in 10.0 mi South 13.8 mph 28.8 mph N/A   Mostly Cloudy
10:55 PM 58.5 °F 43.7 °F 58% 29.80 in 10.0 mi South 15.0 mph 26.5 mph N/A   Overcast
11:15 PM 58.5 °F 43.7 °F 58% 29.78 in 10.0 mi South 16.1 mph 29.9 mph N/A   Overcast
11:35 PM 58.5 °F 43.9 °F 58% 29.78 in 10.0 mi South 16.1 mph 26.5 mph N/A   Overcast
11:55 PM 58.5 °F 44.1 °F 59% 29.77 in 10.0 mi South 15.0 mph 28.8 mph N/A Rain Light Rain